sensor_id;sensor_type;location;lat;lon;timestamp;temperature;humidity
11264;DHT22;5689;48.798;9.070;2023-03-19T00:00:28;9.90;97.70
11264;DHT22;5689;48.798;9.070;2023-03-19T00:02:56;9.90;98.00
11264;DHT22;5689;48.798;9.070;2023-03-19T00:05:24;9.90;98.00
11264;DHT22;5689;48.798;9.070;2023-03-19T00:07:52;9.80;98.20
11264;DHT22;5689;48.798;9.070;2023-03-19T00:10:22;9.80;98.20
11264;DHT22;5689;48.798;9.070;2023-03-19T00:12:50;9.70;98.40
11264;DHT22;5689;48.798;9.070;2023-03-19T00:15:18;9.70;98.60
11264;DHT22;5689;48.798;9.070;2023-03-19T00:17:46;9.70;98.30
11264;DHT22;5689;48.798;9.070;2023-03-19T00:20:14;9.90;98.50
11264;DHT22;5689;48.798;9.070;2023-03-19T00:22:43;10.00;97.80
11264;DHT22;5689;48.798;9.070;2023-03-19T00:25:12;10.10;97.70
11264;DHT22;5689;48.798;9.070;2023-03-19T00:27:42;10.20;97.40
11264;DHT22;5689;48.798;9.070;2023-03-19T00:30:11;10.20;97.40
11264;DHT22;5689;48.798;9.070;2023-03-19T00:32:39;10.30;97.60
11264;DHT22;5689;48.798;9.070;2023-03-19T00:35:08;10.30;97.60
11264;DHT22;5689;48.798;9.070;2023-03-19T00:37:38;10.30;97.60
11264;DHT22;5689;48.798;9.070;2023-03-19T00:40:08;10.20;98.00
11264;DHT22;5689;48.798;9.070;2023-03-19T00:42:36;10.30;97.80
11264;DHT22;5689;48.798;9.070;2023-03-19T00:45:07;10.50;97.70
11264;DHT22;5689;48.798;9.070;2023-03-19T00:47:35;10.40;97.70
11264;DHT22;5689;48.798;9.070;2023-03-19T00:50:04;10.50;97.60
11264;DHT22;5689;48.798;9.070;2023-03-19T00:52:32;10.70;97.50
11264;DHT22;5689;48.798;9.070;2023-03-19T00:55:00;10.80;97.60
11264;DHT22;5689;48.798;9.070;2023-03-19T00:57:28;10.90;97.10
11264;DHT22;5689;48.798;9.070;2023-03-19T00:59:57;10.80;97.10
11264;DHT22;5689;48.798;9.070;2023-03-19T01:02:26;10.60;97.50
11264;DHT22;5689;48.798;9.070;2023-03-19T01:04:55;10.70;97.90
11264;DHT22;5689;48.798;9.070;2023-03-19T01:07:23;10.60;97.80
11264;DHT22;5689;48.798;9.070;2023-03-19T01:09:51;10.60;98.00
11264;DHT22;5689;48.798;9.070;2023-03-19T01:12:19;10.60;98.10
11264;DHT22;5689;48.798;9.070;2023-03-19T01:14:47;10.60;97.90
11264;DHT22;5689;48.798;9.070;2023-03-19T01:17:15;10.60;97.90
11264;DHT22;5689;48.798;9.070;2023-03-19T01:19:44;10.50;98.00
11264;DHT22;5689;48.798;9.070;2023-03-19T01:22:12;10.60;97.90
11264;DHT22;5689;48.798;9.070;2023-03-19T01:24:47;10.70;97.80
11264;DHT22;5689;48.798;9.070;2023-03-19T01:27:15;10.80;97.90
11264;DHT22;5689;48.798;9.070;2023-03-19T01:29:43;10.90;97.50
11264;DHT22;5689;48.798;9.070;2023-03-19T01:32:21;10.80;97.60
11264;DHT22;5689;48.798;9.070;2023-03-19T01:35:19;10.70;97.80
11264;DHT22;5689;48.798;9.070;2023-03-19T01:37:48;10.70;98.30
11264;DHT22;5689;48.798;9.070;2023-03-19T01:40:16;10.90;98.10
11264;DHT22;5689;48.798;9.070;2023-03-19T01:42:55;11.20;94.30
11264;DHT22;5689;48.798;9.070;2023-03-19T01:45:42;11.60;93.00
11264;DHT22;5689;48.798;9.070;2023-03-19T01:48:36;11.60;92.50
11264;DHT22;5689;48.798;9.070;2023-03-19T01:51:13;11.60;92.50
11264;DHT22;5689;48.798;9.070;2023-03-19T01:54:07;11.60;92.90
11264;DHT22;5689;48.798;9.070;2023-03-19T01:56:51;11.40;93.30
11264;DHT22;5689;48.798;9.070;2023-03-19T01:59:45;11.30;94.50
11264;DHT22;5689;48.798;9.070;2023-03-19T02:02:33;10.90;96.70
11264;DHT22;5689;48.798;9.070;2023-03-19T02:05:13;10.60;98.30
11264;DHT22;5689;48.798;9.070;2023-03-19T02:07:44;10.50;99.90
11264;DHT22;5689;48.798;9.070;2023-03-19T02:10:14;10.50;99.90
11264;DHT22;5689;48.798;9.070;2023-03-19T02:12:43;10.50;99.90
11264;DHT22;5689;48.798;9.070;2023-03-19T02:15:12;10.50;99.90
11264;DHT22;5689;48.798;9.070;2023-03-19T02:17:41;10.40;99.90
11264;DHT22;5689;48.798;9.070;2023-03-19T02:20:16;10.30;99.90
11264;DHT22;5689;48.798;9.070;2023-03-19T02:22:53;10.30;99.90
11264;DHT22;5689;48.798;9.070;2023-03-19T02:25:27;10.10;99.90
11264;DHT22;5689;48.798;9.070;2023-03-19T02:28:00;9.90;99.90
11264;DHT22;5689;48.798;9.070;2023-03-19T02:30:30;9.80;99.90
11264;DHT22;5689;48.798;9.070;2023-03-19T02:33:04;9.80;99.90
11264;DHT22;5689;48.798;9.070;2023-03-19T02:35:33;9.80;99.90
11264;DHT22;5689;48.798;9.070;2023-03-19T02:38:03;9.80;99.90
11264;DHT22;5689;48.798;9.070;2023-03-19T02:40:35;9.90;99.90
11264;DHT22;5689;48.798;9.070;2023-03-19T02:43:06;9.60;99.90
11264;DHT22;5689;48.798;9.070;2023-03-19T02:45:34;9.60;99.90
11264;DHT22;5689;48.798;9.070;2023-03-19T02:48:02;9.40;99.90
11264;DHT22;5689;48.798;9.070;2023-03-19T02:50:31;9.40;99.90
11264;DHT22;5689;48.798;9.070;2023-03-19T02:52:59;9.40;99.90
11264;DHT22;5689;48.798;9.070;2023-03-19T02:55:27;9.40;99.90
11264;DHT22;5689;48.798;9.070;2023-03-19T02:57:55;9.40;99.90
11264;DHT22;5689;48.798;9.070;2023-03-19T03:00:24;9.50;99.90
11264;DHT22;5689;48.798;9.070;2023-03-19T03:02:54;9.60;99.90
11264;DHT22;5689;48.798;9.070;2023-03-19T03:05:23;9.60;99.90
11264;DHT22;5689;48.798;9.070;2023-03-19T03:07:51;9.70;99.90
11264;DHT22;5689;48.798;9.070;2023-03-19T03:10:19;9.70;99.90
11264;DHT22;5689;48.798;9.070;2023-03-19T03:12:47;9.70;99.90
11264;DHT22;5689;48.798;9.070;2023-03-19T03:15:15;9.70;99.90
11264;DHT22;5689;48.798;9.070;2023-03-19T03:17:45;9.80;99.90
11264;DHT22;5689;48.798;9.070;2023-03-19T03:20:14;9.70;99.90
11264;DHT22;5689;48.798;9.070;2023-03-19T03:22:43;9.80;99.90
11264;DHT22;5689;48.798;9.070;2023-03-19T03:25:11;9.70;99.90
11264;DHT22;5689;48.798;9.070;2023-03-19T03:27:40;9.70;99.90
11264;DHT22;5689;48.798;9.070;2023-03-19T03:30:10;9.80;99.90
11264;DHT22;5689;48.798;9.070;2023-03-19T03:32:38;9.90;99.90
11264;DHT22;5689;48.798;9.070;2023-03-19T03:35:08;9.90;99.90
11264;DHT22;5689;48.798;9.070;2023-03-19T03:37:37;9.90;99.90
11264;DHT22;5689;48.798;9.070;2023-03-19T03:40:06;9.80;99.90
11264;DHT22;5689;48.798;9.070;2023-03-19T03:42:35;9.80;99.90
11264;DHT22;5689;48.798;9.070;2023-03-19T03:45:07;9.70;99.90
11264;DHT22;5689;48.798;9.070;2023-03-19T03:47:36;9.60;99.90
11264;DHT22;5689;48.798;9.070;2023-03-19T03:50:07;9.50;99.90
11264;DHT22;5689;48.798;9.070;2023-03-19T03:52:37;9.50;99.90
11264;DHT22;5689;48.798;9.070;2023-03-19T03:55:07;9.40;99.90
11264;DHT22;5689;48.798;9.070;2023-03-19T03:57:35;9.60;99.90
11264;DHT22;5689;48.798;9.070;2023-03-19T04:00:04;9.70;99.90
11264;DHT22;5689;48.798;9.070;2023-03-19T04:02:43;9.70;99.90
11264;DHT22;5689;48.798;9.070;2023-03-19T04:05:15;9.70;99.90
11264;DHT22;5689;48.798;9.070;2023-03-19T04:07:44;9.70;99.90
11264;DHT22;5689;48.798;9.070;2023-03-19T04:10:13;9.70;99.90
11264;DHT22;5689;48.798;9.070;2023-03-19T04:12:41;9.70;99.90
11264;DHT22;5689;48.798;9.070;2023-03-19T04:15:11;9.60;99.90
11264;DHT22;5689;48.798;9.070;2023-03-19T04:17:42;9.50;99.90
11264;DHT22;5689;48.798;9.070;2023-03-19T04:20:11;9.40;99.90
11264;DHT22;5689;48.798;9.070;2023-03-19T04:22:43;9.40;99.90
11264;DHT22;5689;48.798;9.070;2023-03-19T04:25:11;9.40;99.90
11264;DHT22;5689;48.798;9.070;2023-03-19T04:27:39;9.50;99.90
11264;DHT22;5689;48.798;9.070;2023-03-19T04:30:09;9.50;99.90
11264;DHT22;5689;48.798;9.070;2023-03-19T04:32:37;9.50;99.90
11264;DHT22;5689;48.798;9.070;2023-03-19T04:35:06;9.50;99.90
11264;DHT22;5689;48.798;9.070;2023-03-19T04:37:34;9.40;99.90
11264;DHT22;5689;48.798;9.070;2023-03-19T04:40:05;9.40;99.90
11264;DHT22;5689;48.798;9.070;2023-03-19T04:42:35;9.40;99.90
11264;DHT22;5689;48.798;9.070;2023-03-19T04:45:09;9.50;99.90
11264;DHT22;5689;48.798;9.070;2023-03-19T04:47:38;9.50;99.90
11264;DHT22;5689;48.798;9.070;2023-03-19T04:50:08;9.40;99.90
11264;DHT22;5689;48.798;9.070;2023-03-19T04:52:36;9.40;99.90
11264;DHT22;5689;48.798;9.070;2023-03-19T04:55:07;9.50;99.90
11264;DHT22;5689;48.798;9.070;2023-03-19T04:57:46;9.50;99.90
11264;DHT22;5689;48.798;9.070;2023-03-19T05:00:16;9.50;99.90
11264;DHT22;5689;48.798;9.070;2023-03-19T05:02:45;9.60;99.90
11264;DHT22;5689;48.798;9.070;2023-03-19T05:05:14;9.70;99.90
11264;DHT22;5689;48.798;9.070;2023-03-19T05:07:42;9.80;99.90
11264;DHT22;5689;48.798;9.070;2023-03-19T05:10:12;9.80;99.90
11264;DHT22;5689;48.798;9.070;2023-03-19T05:12:40;9.90;99.90
11264;DHT22;5689;48.798;9.070;2023-03-19T05:15:09;9.90;99.90
11264;DHT22;5689;48.798;9.070;2023-03-19T05:17:44;10.00;99.90
11264;DHT22;5689;48.798;9.070;2023-03-19T05:20:20;10.00;99.90
11264;DHT22;5689;48.798;9.070;2023-03-19T05:22:55;10.00;99.90
11264;DHT22;5689;48.798;9.070;2023-03-19T05:25:35;10.10;99.90
11264;DHT22;5689;48.798;9.070;2023-03-19T05:28:06;10.20;99.90
11264;DHT22;5689;48.798;9.070;2023-03-19T05:30:34;10.20;99.90
11264;DHT22;5689;48.798;9.070;2023-03-19T05:33:07;10.20;99.90
11264;DHT22;5689;48.798;9.070;2023-03-19T05:35:39;10.10;99.90
11264;DHT22;5689;48.798;9.070;2023-03-19T05:38:18;10.00;99.90
11264;DHT22;5689;48.798;9.070;2023-03-19T05:40:54;9.90;99.90
11264;DHT22;5689;48.798;9.070;2023-03-19T05:43:29;10.00;99.90
11264;DHT22;5689;48.798;9.070;2023-03-19T05:45:57;10.10;99.90
11264;DHT22;5689;48.798;9.070;2023-03-19T05:48:29;10.00;99.90
11264;DHT22;5689;48.798;9.070;2023-03-19T05:50:57;10.10;99.90
11264;DHT22;5689;48.798;9.070;2023-03-19T05:53:30;10.10;99.90
11264;DHT22;5689;48.798;9.070;2023-03-19T05:56:25;10.20;99.90
11264;DHT22;5689;48.798;9.070;2023-03-19T05:59:18;10.20;99.90
11264;DHT22;5689;48.798;9.070;2023-03-19T06:01:57;10.30;99.90
11264;DHT22;5689;48.798;9.070;2023-03-19T06:04:26;10.40;99.90
11264;DHT22;5689;48.798;9.070;2023-03-19T06:06:54;10.50;99.90
11264;DHT22;5689;48.798;9.070;2023-03-19T06:09:23;10.40;99.90
11264;DHT22;5689;48.798;9.070;2023-03-19T06:11:55;10.40;99.90
11264;DHT22;5689;48.798;9.070;2023-03-19T06:14:46;10.50;99.90
11264;DHT22;5689;48.798;9.070;2023-03-19T06:17:43;10.50;99.90
11264;DHT22;5689;48.798;9.070;2023-03-19T06:20:15;10.50;99.90
11264;DHT22;5689;48.798;9.070;2023-03-19T06:22:44;10.60;99.90
11264;DHT22;5689;48.798;9.070;2023-03-19T06:25:12;10.60;99.90
11264;DHT22;5689;48.798;9.070;2023-03-19T06:27:41;10.60;99.90
11264;DHT22;5689;48.798;9.070;2023-03-19T06:30:39;10.60;99.90
11264;DHT22;5689;48.798;9.070;2023-03-19T06:33:27;10.70;99.90
11264;DHT22;5689;48.798;9.070;2023-03-19T06:35:57;10.80;99.90
11264;DHT22;5689;48.798;9.070;2023-03-19T06:38:27;10.80;99.90
11264;DHT22;5689;48.798;9.070;2023-03-19T06:40:55;10.90;99.90
11264;DHT22;5689;48.798;9.070;2023-03-19T06:43:24;10.90;99.90
11264;DHT22;5689;48.798;9.070;2023-03-19T06:45:52;11.00;99.90
11264;DHT22;5689;48.798;9.070;2023-03-19T06:48:20;11.00;99.90
11264;DHT22;5689;48.798;9.070;2023-03-19T06:50:48;11.10;99.90
11264;DHT22;5689;48.798;9.070;2023-03-19T06:53:16;11.20;99.90
11264;DHT22;5689;48.798;9.070;2023-03-19T06:55:45;11.30;99.90
11264;DHT22;5689;48.798;9.070;2023-03-19T06:58:13;11.40;99.90
11264;DHT22;5689;48.798;9.070;2023-03-19T07:00:42;11.40;99.90
11264;DHT22;5689;48.798;9.070;2023-03-19T07:03:10;11.50;99.90
11264;DHT22;5689;48.798;9.070;2023-03-19T07:05:38;11.50;99.90
11264;DHT22;5689;48.798;9.070;2023-03-19T07:08:06;11.50;99.90
11264;DHT22;5689;48.798;9.070;2023-03-19T07:10:37;11.50;99.90
11264;DHT22;5689;48.798;9.070;2023-03-19T07:13:05;11.50;99.90
11264;DHT22;5689;48.798;9.070;2023-03-19T07:15:33;11.40;99.90
11264;DHT22;5689;48.798;9.070;2023-03-19T07:18:03;11.40;99.90
11264;DHT22;5689;48.798;9.070;2023-03-19T07:20:31;11.50;99.90
11264;DHT22;5689;48.798;9.070;2023-03-19T07:23:00;11.40;99.90
11264;DHT22;5689;48.798;9.070;2023-03-19T07:25:28;11.50;99.90
11264;DHT22;5689;48.798;9.070;2023-03-19T07:27:56;11.50;99.90
11264;DHT22;5689;48.798;9.070;2023-03-19T07:30:24;11.70;99.90
11264;DHT22;5689;48.798;9.070;2023-03-19T07:32:52;11.70;99.90
11264;DHT22;5689;48.798;9.070;2023-03-19T07:35:21;11.80;99.90
11264;DHT22;5689;48.798;9.070;2023-03-19T07:37:49;11.80;99.90
11264;DHT22;5689;48.798;9.070;2023-03-19T07:40:17;11.90;99.90
11264;DHT22;5689;48.798;9.070;2023-03-19T07:42:45;12.00;99.90
11264;DHT22;5689;48.798;9.070;2023-03-19T07:45:13;11.90;99.90
11264;DHT22;5689;48.798;9.070;2023-03-19T07:47:41;12.00;99.90
11264;DHT22;5689;48.798;9.070;2023-03-19T07:50:10;12.00;99.90
11264;DHT22;5689;48.798;9.070;2023-03-19T07:52:39;12.00;99.90
11264;DHT22;5689;48.798;9.070;2023-03-19T07:55:08;12.10;99.90
11264;DHT22;5689;48.798;9.070;2023-03-19T07:57:36;12.10;99.90
11264;DHT22;5689;48.798;9.070;2023-03-19T08:00:04;12.20;99.90
11264;DHT22;5689;48.798;9.070;2023-03-19T08:02:38;12.30;99.90
11264;DHT22;5689;48.798;9.070;2023-03-19T08:05:08;12.40;99.90
11264;DHT22;5689;48.798;9.070;2023-03-19T08:07:36;12.60;99.90
11264;DHT22;5689;48.798;9.070;2023-03-19T08:10:07;12.70;99.90
11264;DHT22;5689;48.798;9.070;2023-03-19T08:12:35;12.70;99.90
11264;DHT22;5689;48.798;9.070;2023-03-19T08:15:09;12.70;99.90
11264;DHT22;5689;48.798;9.070;2023-03-19T08:17:37;12.70;99.90
11264;DHT22;5689;48.798;9.070;2023-03-19T08:20:07;12.80;99.90
11264;DHT22;5689;48.798;9.070;2023-03-19T08:22:35;12.80;99.90
11264;DHT22;5689;48.798;9.070;2023-03-19T08:25:06;13.10;99.90
11264;DHT22;5689;48.798;9.070;2023-03-19T08:27:35;13.20;99.90
11264;DHT22;5689;48.798;9.070;2023-03-19T08:30:04;13.30;99.90
11264;DHT22;5689;48.798;9.070;2023-03-19T08:32:33;13.50;99.90
11264;DHT22;5689;48.798;9.070;2023-03-19T08:35:02;13.60;99.90
11264;DHT22;5689;48.798;9.070;2023-03-19T08:37:30;13.70;99.90
11264;DHT22;5689;48.798;9.070;2023-03-19T08:39:58;13.90;99.90
11264;DHT22;5689;48.798;9.070;2023-03-19T08:42:27;14.20;99.90
11264;DHT22;5689;48.798;9.070;2023-03-19T08:44:55;14.30;99.90
11264;DHT22;5689;48.798;9.070;2023-03-19T08:47:24;14.60;99.90
11264;DHT22;5689;48.798;9.070;2023-03-19T08:49:53;14.50;99.90
11264;DHT22;5689;48.798;9.070;2023-03-19T08:52:21;14.90;99.90
11264;DHT22;5689;48.798;9.070;2023-03-19T08:54:50;14.70;99.90
11264;DHT22;5689;48.798;9.070;2023-03-19T08:57:18;15.00;99.90
11264;DHT22;5689;48.798;9.070;2023-03-19T08:59:48;15.90;99.90
11264;DHT22;5689;48.798;9.070;2023-03-19T09:02:16;16.50;99.70
11264;DHT22;5689;48.798;9.070;2023-03-19T09:04:44;16.10;98.60
11264;DHT22;5689;48.798;9.070;2023-03-19T09:07:12;16.00;99.10
11264;DHT22;5689;48.798;9.070;2023-03-19T09:09:41;16.40;99.20
11264;DHT22;5689;48.798;9.070;2023-03-19T09:12:11;17.10;98.00
11264;DHT22;5689;48.798;9.070;2023-03-19T09:14:40;17.60;96.80
11264;DHT22;5689;48.798;9.070;2023-03-19T09:17:10;17.20;95.50
11264;DHT22;5689;48.798;9.070;2023-03-19T09:19:39;16.60;94.60
11264;DHT22;5689;48.798;9.070;2023-03-19T09:22:07;16.10;96.40
11264;DHT22;5689;48.798;9.070;2023-03-19T09:24:35;17.20;95.20
11264;DHT22;5689;48.798;9.070;2023-03-19T09:27:06;18.60;95.10
11264;DHT22;5689;48.798;9.070;2023-03-19T09:29:34;19.50;91.10
11264;DHT22;5689;48.798;9.070;2023-03-19T09:32:02;19.80;89.50
11264;DHT22;5689;48.798;9.070;2023-03-19T09:34:31;19.00;88.10
11264;DHT22;5689;48.798;9.070;2023-03-19T09:36:59;17.90;88.70
11264;DHT22;5689;48.798;9.070;2023-03-19T09:39:27;17.70;90.10
11264;DHT22;5689;48.798;9.070;2023-03-19T09:42:04;18.50;90.20
11264;DHT22;5689;48.798;9.070;2023-03-19T09:44:38;19.60;86.40
11264;DHT22;5689;48.798;9.070;2023-03-19T09:47:26;21.80;83.60
11264;DHT22;5689;48.798;9.070;2023-03-19T09:49:58;21.20;79.50
11264;DHT22;5689;48.798;9.070;2023-03-19T09:52:37;21.40;77.80
11264;DHT22;5689;48.798;9.070;2023-03-19T09:55:20;20.00;77.10
11264;DHT22;5689;48.798;9.070;2023-03-19T09:57:51;19.90;78.30
11264;DHT22;5689;48.798;9.070;2023-03-19T10:00:23;19.00;79.90
11264;DHT22;5689;48.798;9.070;2023-03-19T10:02:55;18.10;81.30
11264;DHT22;5689;48.798;9.070;2023-03-19T10:05:34;18.10;81.50
11264;DHT22;5689;48.798;9.070;2023-03-19T10:08:23;19.20;81.00
11264;DHT22;5689;48.798;9.070;2023-03-19T10:11:04;20.80;76.60
11264;DHT22;5689;48.798;9.070;2023-03-19T10:13:46;20.30;77.10
11264;DHT22;5689;48.798;9.070;2023-03-19T10:16:20;20.40;77.40
11264;DHT22;5689;48.798;9.070;2023-03-19T10:18:50;21.30;75.50
11264;DHT22;5689;48.798;9.070;2023-03-19T10:21:24;21.80;73.70
11264;DHT22;5689;48.798;9.070;2023-03-19T10:23:58;21.50;75.30
11264;DHT22;5689;48.798;9.070;2023-03-19T10:26:30;21.80;73.40
11264;DHT22;5689;48.798;9.070;2023-03-19T10:29:05;21.70;73.20
11264;DHT22;5689;48.798;9.070;2023-03-19T10:31:42;22.30;74.00
11264;DHT22;5689;48.798;9.070;2023-03-19T10:34:28;22.60;72.30
11264;DHT22;5689;48.798;9.070;2023-03-19T10:37:01;23.80;69.20
11264;DHT22;5689;48.798;9.070;2023-03-19T10:39:31;23.30;68.80
11264;DHT22;5689;48.798;9.070;2023-03-19T10:42:08;23.10;66.40
11264;DHT22;5689;48.798;9.070;2023-03-19T10:44:47;23.60;66.70
11264;DHT22;5689;48.798;9.070;2023-03-19T10:47:17;23.40;64.00
11264;DHT22;5689;48.798;9.070;2023-03-19T10:49:46;20.70;69.60
11264;DHT22;5689;48.798;9.070;2023-03-19T10:52:21;20.30;72.00
11264;DHT22;5689;48.798;9.070;2023-03-19T10:54:54;20.00;71.60
11264;DHT22;5689;48.798;9.070;2023-03-19T10:57:25;19.80;73.20
11264;DHT22;5689;48.798;9.070;2023-03-19T10:59:54;20.50;71.50
11264;DHT22;5689;48.798;9.070;2023-03-19T11:02:23;20.80;70.90
11264;DHT22;5689;48.798;9.070;2023-03-19T11:05:06;20.20;72.00
11264;DHT22;5689;48.798;9.070;2023-03-19T11:07:36;19.50;73.10
11264;DHT22;5689;48.798;9.070;2023-03-19T11:10:11;19.00;74.90
11264;DHT22;5689;48.798;9.070;2023-03-19T11:12:39;18.60;75.90
11264;DHT22;5689;48.798;9.070;2023-03-19T11:15:17;18.40;75.80
11264;DHT22;5689;48.798;9.070;2023-03-19T11:17:48;18.40;76.70
11264;DHT22;5689;48.798;9.070;2023-03-19T11:20:22;18.10;78.20
11264;DHT22;5689;48.798;9.070;2023-03-19T11:22:53;18.40;77.50
11264;DHT22;5689;48.798;9.070;2023-03-19T11:25:24;18.80;77.40
11264;DHT22;5689;48.798;9.070;2023-03-19T11:27:57;19.20;75.60
11264;DHT22;5689;48.798;9.070;2023-03-19T11:30:32;19.70;75.90
11264;DHT22;5689;48.798;9.070;2023-03-19T11:36:08;20.70;75.30
11264;DHT22;5689;48.798;9.070;2023-03-19T11:38:48;22.30;71.90
11264;DHT22;5689;48.798;9.070;2023-03-19T11:41:26;24.30;67.80
11264;DHT22;5689;48.798;9.070;2023-03-19T11:43:58;24.80;64.70
11264;DHT22;5689;48.798;9.070;2023-03-19T11:46:41;24.40;66.80
11264;DHT22;5689;48.798;9.070;2023-03-19T11:49:32;25.40;62.60
11264;DHT22;5689;48.798;9.070;2023-03-19T11:52:10;23.60;64.10
11264;DHT22;5689;48.798;9.070;2023-03-19T11:55:00;21.20;68.20
11264;DHT22;5689;48.798;9.070;2023-03-19T11:57:42;20.30;71.30
11264;DHT22;5689;48.798;9.070;2023-03-19T12:00:24;20.20;71.10
11264;DHT22;5689;48.798;9.070;2023-03-19T12:03:22;20.70;70.50
11264;DHT22;5689;48.798;9.070;2023-03-19T12:05:58;20.40;72.60
11264;DHT22;5689;48.798;9.070;2023-03-19T12:08:32;20.70;71.90
11264;DHT22;5689;48.798;9.070;2023-03-19T12:11:19;21.50;70.10
11264;DHT22;5689;48.798;9.070;2023-03-19T12:14:11;22.20;68.60
11264;DHT22;5689;48.798;9.070;2023-03-19T12:16:51;21.90;68.20
11264;DHT22;5689;48.798;9.070;2023-03-19T12:19:54;20.60;70.40
11264;DHT22;5689;48.798;9.070;2023-03-19T12:22:36;20.30;74.40
11264;DHT22;5689;48.798;9.070;2023-03-19T12:25:20;22.10;70.50
11264;DHT22;5689;48.798;9.070;2023-03-19T12:27:54;21.80;69.40
11264;DHT22;5689;48.798;9.070;2023-03-19T12:30:32;23.30;68.60
11264;DHT22;5689;48.798;9.070;2023-03-19T12:33:15;22.10;70.40
11264;DHT22;5689;48.798;9.070;2023-03-19T12:35:48;20.90;70.80
11264;DHT22;5689;48.798;9.070;2023-03-19T12:38:20;19.80;72.80
11264;DHT22;5689;48.798;9.070;2023-03-19T12:40:53;18.30;79.00
11264;DHT22;5689;48.798;9.070;2023-03-19T12:43:29;17.00;82.80
11264;DHT22;5689;48.798;9.070;2023-03-19T12:46:01;16.80;86.30
11264;DHT22;5689;48.798;9.070;2023-03-19T12:48:38;16.30;88.10
11264;DHT22;5689;48.798;9.070;2023-03-19T12:51:11;16.00;90.20
11264;DHT22;5689;48.798;9.070;2023-03-19T12:53:45;15.30;92.40
11264;DHT22;5689;48.798;9.070;2023-03-19T12:56:18;14.90;93.70
11264;DHT22;5689;48.798;9.070;2023-03-19T12:58:53;14.70;94.80
11264;DHT22;5689;48.798;9.070;2023-03-19T13:01:28;14.90;95.80
11264;DHT22;5689;48.798;9.070;2023-03-19T13:04:02;14.50;98.00
11264;DHT22;5689;48.798;9.070;2023-03-19T13:06:35;14.00;99.90
11264;DHT22;5689;48.798;9.070;2023-03-19T13:09:07;13.80;99.90
11264;DHT22;5689;48.798;9.070;2023-03-19T13:11:44;13.50;99.90
11264;DHT22;5689;48.798;9.070;2023-03-19T13:14:20;13.60;99.90
11264;DHT22;5689;48.798;9.070;2023-03-19T13:16:53;13.60;99.90
11264;DHT22;5689;48.798;9.070;2023-03-19T13:19:29;13.80;99.90
11264;DHT22;5689;48.798;9.070;2023-03-19T13:22:02;13.70;99.90
11264;DHT22;5689;48.798;9.070;2023-03-19T13:24:34;14.10;99.90
11264;DHT22;5689;48.798;9.070;2023-03-19T13:27:06;14.40;99.90
11264;DHT22;5689;48.798;9.070;2023-03-19T13:29:36;14.80;99.90
11264;DHT22;5689;48.798;9.070;2023-03-19T13:32:06;15.00;99.90
11264;DHT22;5689;48.798;9.070;2023-03-19T13:34:37;14.80;99.90
11264;DHT22;5689;48.798;9.070;2023-03-19T13:37:10;14.30;99.90
11264;DHT22;5689;48.798;9.070;2023-03-19T13:39:41;14.30;99.90
11264;DHT22;5689;48.798;9.070;2023-03-19T13:42:34;14.00;99.90
11264;DHT22;5689;48.798;9.070;2023-03-19T13:45:34;14.00;99.90
11264;DHT22;5689;48.798;9.070;2023-03-19T13:48:32;14.20;99.90
11264;DHT22;5689;48.798;9.070;2023-03-19T13:51:03;14.30;99.90
11264;DHT22;5689;48.798;9.070;2023-03-19T13:53:37;14.20;99.90
11264;DHT22;5689;48.798;9.070;2023-03-19T13:56:08;14.40;99.90
11264;DHT22;5689;48.798;9.070;2023-03-19T13:59:20;14.20;99.90
11264;DHT22;5689;48.798;9.070;2023-03-19T14:01:50;14.30;99.90
11264;DHT22;5689;48.798;9.070;2023-03-19T14:04:21;14.40;99.90
11264;DHT22;5689;48.798;9.070;2023-03-19T14:06:52;14.80;99.90
11264;DHT22;5689;48.798;9.070;2023-03-19T14:09:43;15.30;99.90
11264;DHT22;5689;48.798;9.070;2023-03-19T14:12:21;15.80;99.90
11264;DHT22;5689;48.798;9.070;2023-03-19T14:14:53;16.30;99.90
11264;DHT22;5689;48.798;9.070;2023-03-19T14:17:26;16.60;99.90
11264;DHT22;5689;48.798;9.070;2023-03-19T14:19:55;16.80;99.90
11264;DHT22;5689;48.798;9.070;2023-03-19T14:22:35;17.10;99.90
11264;DHT22;5689;48.798;9.070;2023-03-19T14:25:15;17.90;99.90
11264;DHT22;5689;48.798;9.070;2023-03-19T14:27:46;18.60;99.90
11264;DHT22;5689;48.798;9.070;2023-03-19T14:30:26;18.60;99.00
11264;DHT22;5689;48.798;9.070;2023-03-19T14:32:59;16.90;99.90
11264;DHT22;5689;48.798;9.070;2023-03-19T14:35:32;16.60;99.90
11264;DHT22;5689;48.798;9.070;2023-03-19T14:38:10;16.00;99.90
11264;DHT22;5689;48.798;9.070;2023-03-19T14:40:44;15.50;99.90
11264;DHT22;5689;48.798;9.070;2023-03-19T14:43:22;15.30;99.90
11264;DHT22;5689;48.798;9.070;2023-03-19T14:45:58;15.20;99.90
11264;DHT22;5689;48.798;9.070;2023-03-19T14:48:57;15.20;99.90
11264;DHT22;5689;48.798;9.070;2023-03-19T14:51:52;15.00;99.90
11264;DHT22;5689;48.798;9.070;2023-03-19T14:54:27;14.60;99.90
11264;DHT22;5689;48.798;9.070;2023-03-19T14:56:57;14.70;99.90
11264;DHT22;5689;48.798;9.070;2023-03-19T14:59:36;14.60;99.90
11264;DHT22;5689;48.798;9.070;2023-03-19T15:02:13;14.60;99.90
11264;DHT22;5689;48.798;9.070;2023-03-19T15:04:47;14.50;99.90
11264;DHT22;5689;48.798;9.070;2023-03-19T15:07:19;14.50;99.90
11264;DHT22;5689;48.798;9.070;2023-03-19T15:09:52;14.50;99.90
11264;DHT22;5689;48.798;9.070;2023-03-19T15:12:34;14.50;99.90
11264;DHT22;5689;48.798;9.070;2023-03-19T15:15:18;14.90;99.90
11264;DHT22;5689;48.798;9.070;2023-03-19T15:17:49;14.50;99.90
11264;DHT22;5689;48.798;9.070;2023-03-19T15:20:34;14.90;99.90
11264;DHT22;5689;48.798;9.070;2023-03-19T15:23:05;15.10;99.90
11264;DHT22;5689;48.798;9.070;2023-03-19T15:25:51;14.70;99.90
11264;DHT22;5689;48.798;9.070;2023-03-19T15:28:24;14.70;99.90
11264;DHT22;5689;48.798;9.070;2023-03-19T15:30:57;14.80;99.90
11264;DHT22;5689;48.798;9.070;2023-03-19T15:33:38;14.70;99.90
11264;DHT22;5689;48.798;9.070;2023-03-19T15:36:15;14.30;99.90
11264;DHT22;5689;48.798;9.070;2023-03-19T15:38:47;14.40;99.90
11264;DHT22;5689;48.798;9.070;2023-03-19T15:41:18;13.90;99.90
11264;DHT22;5689;48.798;9.070;2023-03-19T15:43:46;13.80;99.90
11264;DHT22;5689;48.798;9.070;2023-03-19T15:46:16;13.60;99.90
11264;DHT22;5689;48.798;9.070;2023-03-19T15:48:49;13.30;99.90
11264;DHT22;5689;48.798;9.070;2023-03-19T15:51:21;13.20;99.90
11264;DHT22;5689;48.798;9.070;2023-03-19T15:53:51;13.30;99.90
11264;DHT22;5689;48.798;9.070;2023-03-19T15:56:20;13.20;99.90
11264;DHT22;5689;48.798;9.070;2023-03-19T15:58:50;13.30;99.90
11264;DHT22;5689;48.798;9.070;2023-03-19T16:01:19;13.20;99.90
11264;DHT22;5689;48.798;9.070;2023-03-19T16:03:54;13.30;99.90
11264;DHT22;5689;48.798;9.070;2023-03-19T16:06:27;13.20;99.90
11264;DHT22;5689;48.798;9.070;2023-03-19T16:09:10;12.90;99.90
11264;DHT22;5689;48.798;9.070;2023-03-19T16:11:41;12.80;99.90
11264;DHT22;5689;48.798;9.070;2023-03-19T16:14:14;12.50;99.90
11264;DHT22;5689;48.798;9.070;2023-03-19T16:16:48;12.20;99.90
11264;DHT22;5689;48.798;9.070;2023-03-19T16:19:31;12.10;99.90
11264;DHT22;5689;48.798;9.070;2023-03-19T16:22:02;12.00;99.90
11264;DHT22;5689;48.798;9.070;2023-03-19T16:24:33;12.40;99.90
11264;DHT22;5689;48.798;9.070;2023-03-19T16:27:06;13.10;99.90
11264;DHT22;5689;48.798;9.070;2023-03-19T16:29:37;13.20;99.90